createdAt,value
2022-10-05T00:00:37.885Z,0.00
2022-10-05T00:01:32.967Z,0.00
2022-10-05T00:02:28.004Z,0.00
2022-10-05T00:03:22.977Z,0.00
2022-10-05T00:04:18.015Z,0.00
2022-10-05T00:05:13.170Z,0.00
2022-10-05T00:06:08.231Z,0.00
2022-10-05T00:07:03.232Z,0.00
2022-10-05T00:07:58.419Z,0.00
2022-10-05T00:08:56.361Z,0.00
2022-10-05T00:09:51.514Z,0.00
2022-10-05T00:10:46.535Z,0.00
2022-10-05T00:11:41.895Z,0.00
2022-10-05T00:12:36.823Z,0.00
2022-10-05T00:13:31.999Z,0.00
2022-10-05T00:14:27.308Z,0.00
2022-10-05T00:15:22.533Z,0.00
2022-10-05T00:16:17.836Z,0.00
2022-10-05T00:17:12.919Z,0.00
2022-10-05T00:18:07.948Z,0.00
2022-10-05T00:19:02.976Z,0.00
2022-10-05T00:19:58.100Z,0.00
2022-10-05T00:20:53.085Z,0.00
2022-10-05T00:21:48.152Z,0.00
2022-10-05T00:22:43.151Z,0.00
2022-10-05T00:23:38.325Z,0.00
2022-10-05T00:24:33.422Z,0.00
2022-10-05T00:25:28.574Z,0.00
2022-10-05T00:26:28.251Z,0.00
2022-10-05T00:27:23.414Z,0.00
2022-10-05T00:28:18.775Z,0.00
2022-10-05T00:29:14.442Z,0.00
2022-10-05T00:30:09.626Z,0.00
2022-10-05T00:31:04.811Z,0.00
2022-10-05T00:32:01.316Z,0.00
2022-10-05T00:32:59.626Z,0.00
2022-10-05T00:33:52.360Z,0.00
2022-10-05T00:34:47.652Z,0.00
2022-10-05T00:35:42.734Z,0.00
2022-10-05T00:36:38.595Z,0.00
2022-10-05T00:37:33.843Z,0.00
2022-10-05T00:38:29.578Z,0.00
2022-10-05T00:39:24.724Z,0.00
2022-10-05T00:40:20.032Z,0.00
2022-10-05T00:41:15.889Z,0.00
2022-10-05T00:42:11.120Z,0.00
2022-10-05T00:43:06.239Z,0.00
2022-10-05T00:44:02.722Z,0.00
2022-10-05T00:44:57.865Z,0.00
2022-10-05T00:45:53.774Z,0.00
2022-10-05T00:46:49.143Z,0.00
2022-10-05T00:47:44.397Z,0.00
2022-10-05T00:48:40.116Z,0.00
2022-10-05T00:49:35.294Z,0.00
2022-10-05T00:50:31.348Z,0.00
2022-10-05T00:51:26.437Z,0.00
2022-10-05T00:52:21.611Z,0.00
2022-10-05T00:53:17.531Z,0.00
2022-10-05T00:54:18.058Z,0.00
2022-10-05T00:55:08.980Z,0.00
2022-10-05T00:56:03.098Z,0.00
2022-10-05T00:56:58.988Z,0.00
2022-10-05T00:57:54.140Z,0.00
2022-10-05T00:58:49.486Z,0.00
2022-10-05T00:59:45.689Z,0.00
2022-10-05T01:00:40.881Z,0.00
2022-10-05T01:01:36.826Z,0.00
2022-10-05T01:02:36.573Z,0.00
2022-10-05T01:03:28.588Z,0.00
2022-10-05T01:04:22.873Z,0.00
2022-10-05T01:05:18.729Z,0.00
2022-10-05T01:06:13.906Z,0.00
2022-10-05T01:07:09.093Z,0.00
2022-10-05T01:08:04.928Z,0.00
2022-10-05T01:09:00.113Z,0.00
2022-10-05T01:09:55.976Z,0.00
2022-10-05T01:10:51.046Z,0.00
2022-10-05T01:11:46.255Z,0.00
2022-10-05T01:12:42.108Z,0.00
2022-10-05T01:13:37.302Z,0.00
2022-10-05T01:14:32.637Z,0.00
2022-10-05T01:15:28.936Z,0.00
2022-10-05T01:16:24.344Z,0.00
2022-10-05T01:17:20.090Z,0.00
2022-10-05T01:18:15.230Z,0.00
2022-10-05T01:19:10.546Z,0.00
2022-10-05T01:20:06.217Z,0.00
2022-10-05T01:21:01.391Z,0.00
2022-10-05T01:21:57.260Z,0.00
2022-10-05T01:22:52.434Z,0.00
2022-10-05T01:23:47.743Z,0.00
2022-10-05T01:24:42.932Z,0.00
2022-10-05T01:25:38.109Z,0.00
2022-10-05T01:26:33.878Z,0.00
2022-10-05T01:27:29.212Z,0.00
2022-10-05T01:28:24.557Z,0.00
2022-10-05T01:29:20.142Z,0.00
2022-10-05T01:30:15.416Z,0.00
2022-10-05T01:31:11.182Z,0.00
2022-10-05T01:32:06.386Z,0.00
2022-10-05T01:33:01.730Z,0.00
2022-10-05T01:33:57.346Z,0.00
2022-10-05T01:34:52.504Z,0.00
2022-10-05T01:35:47.701Z,0.00
2022-10-05T01:36:44.397Z,0.00
2022-10-05T01:37:39.397Z,0.00
2022-10-05T01:38:35.154Z,0.00
2022-10-05T01:39:30.325Z,0.00
2022-10-05T01:40:25.522Z,0.00
2022-10-05T01:41:20.671Z,0.00
2022-10-05T01:42:16.003Z,0.00
2022-10-05T01:43:11.116Z,0.00
2022-10-05T01:44:06.202Z,0.00
2022-10-05T01:45:01.343Z,0.00
2022-10-05T01:45:56.583Z,0.00
2022-10-05T01:46:51.526Z,0.00
2022-10-05T01:47:46.597Z,0.00
2022-10-05T01:48:41.768Z,0.00
2022-10-05T01:49:36.579Z,0.00
2022-10-05T01:50:34.562Z,0.00
2022-10-05T01:51:29.694Z,0.00
2022-10-05T01:52:24.724Z,0.00
2022-10-05T01:53:19.760Z,0.00
2022-10-05T01:54:14.793Z,0.00
2022-10-05T01:55:09.913Z,0.00
2022-10-05T01:56:04.902Z,0.00
2022-10-05T01:56:59.953Z,0.00
2022-10-05T01:57:55.134Z,0.00
2022-10-05T01:58:50.214Z,0.00
2022-10-05T01:59:45.290Z,0.00
2022-10-05T02:00:40.332Z,0.00
2022-10-05T02:01:35.551Z,0.00
2022-10-05T02:02:30.610Z,0.00
2022-10-05T02:03:25.508Z,0.00
2022-10-05T02:04:42.705Z,0.00
2022-10-05T02:05:16.662Z,0.00
2022-10-05T02:06:11.615Z,0.00
2022-10-05T02:07:06.762Z,0.00
2022-10-05T02:08:01.923Z,0.00
2022-10-05T02:08:57.291Z,0.00
2022-10-05T02:09:52.303Z,0.00
2022-10-05T02:10:47.483Z,0.00
2022-10-05T02:11:42.704Z,0.00
2022-10-05T02:12:37.886Z,0.00
2022-10-05T02:13:33.214Z,0.00
2022-10-05T02:14:28.406Z,0.00
2022-10-05T02:15:26.822Z,0.00
2022-10-05T02:16:22.037Z,0.00
2022-10-05T02:17:17.221Z,0.00
2022-10-05T02:18:12.382Z,0.00
2022-10-05T02:19:07.742Z,0.00
2022-10-05T02:20:02.994Z,0.00
2022-10-05T02:20:58.057Z,0.00
2022-10-05T02:21:53.076Z,0.00
2022-10-05T02:22:48.140Z,0.00
2022-10-05T02:23:43.175Z,0.00
2022-10-05T02:24:38.337Z,0.00
2022-10-05T02:25:33.200Z,0.00
2022-10-05T02:26:28.228Z,0.00
2022-10-05T02:27:23.274Z,0.00
2022-10-05T02:28:18.378Z,0.00
2022-10-05T02:29:13.363Z,0.00
2022-10-05T02:30:11.660Z,0.00
2022-10-05T02:31:04.557Z,0.00
2022-10-05T02:31:58.615Z,0.00
2022-10-05T02:32:53.677Z,0.00
2022-10-05T02:33:48.708Z,0.00
2022-10-05T02:34:43.775Z,0.00
2022-10-05T02:35:38.817Z,0.00
2022-10-05T02:36:33.850Z,0.00
2022-10-05T02:37:28.890Z,0.00
2022-10-05T02:38:24.131Z,0.00
2022-10-05T02:39:18.925Z,0.00
2022-10-05T02:40:13.950Z,0.00
2022-10-05T02:41:08.947Z,0.00
2022-10-05T02:42:04.010Z,0.00
2022-10-05T02:42:59.313Z,0.00
2022-10-05T02:43:54.347Z,0.00
2022-10-05T02:44:49.476Z,0.00
2022-10-05T02:45:44.863Z,0.00
2022-10-05T02:46:40.594Z,0.00
2022-10-05T02:47:36.084Z,0.00
2022-10-05T02:48:31.371Z,0.00
2022-10-05T02:49:27.617Z,0.00
2022-10-05T02:50:23.025Z,0.00
2022-10-05T02:51:18.644Z,0.00
2022-10-05T02:52:13.812Z,0.00
2022-10-05T02:53:09.282Z,0.00
2022-10-05T02:54:04.831Z,0.00
2022-10-05T02:55:00.091Z,0.00
2022-10-05T02:55:55.922Z,0.00
2022-10-05T02:56:51.078Z,0.00
2022-10-05T02:57:46.426Z,0.00
2022-10-05T02:58:42.036Z,0.00
2022-10-05T02:59:37.155Z,0.00
2022-10-05T03:00:32.321Z,0.00
2022-10-05T03:01:28.803Z,0.00
2022-10-05T03:02:24.049Z,0.00
2022-10-05T03:03:19.783Z,0.00
2022-10-05T03:04:14.927Z,0.00
2022-10-05T03:05:10.114Z,0.00
2022-10-05T03:06:05.950Z,0.00
2022-10-05T03:07:01.135Z,0.00
2022-10-05T03:07:57.039Z,0.00
2022-10-05T03:08:52.148Z,0.00
2022-10-05T03:09:47.486Z,0.00
2022-10-05T03:10:43.279Z,0.00
2022-10-05T03:11:38.527Z,0.00
2022-10-05T03:12:33.656Z,0.00
2022-10-05T03:13:30.065Z,0.00
2022-10-05T03:14:25.227Z,0.00
2022-10-05T03:15:21.099Z,0.00
2022-10-05T03:16:16.366Z,0.00
2022-10-05T03:17:11.584Z,0.00
2022-10-05T03:18:07.315Z,0.00
2022-10-05T03:19:02.534Z,0.00
2022-10-05T03:19:58.507Z,0.00
2022-10-05T03:20:53.517Z,0.00
2022-10-05T03:21:48.697Z,0.00
2022-10-05T03:22:44.540Z,0.00
2022-10-05T03:23:39.733Z,0.00
2022-10-05T03:24:35.000Z,0.00
2022-10-05T03:25:31.300Z,0.00
2022-10-05T03:26:26.479Z,0.00
2022-10-05T03:27:22.289Z,0.00
2022-10-05T03:28:17.562Z,0.00
2022-10-05T03:29:12.871Z,0.00
2022-10-05T03:30:08.655Z,0.00
2022-10-05T03:31:03.882Z,0.00
2022-10-05T03:31:59.668Z,0.00
2022-10-05T03:32:54.960Z,0.00
2022-10-05T03:33:50.140Z,0.00
2022-10-05T03:34:45.891Z,0.00
2022-10-05T03:35:41.025Z,0.00
2022-10-05T03:36:36.136Z,0.00
2022-10-05T03:37:32.635Z,0.00
2022-10-05T03:38:27.866Z,0.00
2022-10-05T03:39:23.556Z,0.00
2022-10-05T03:40:18.758Z,0.00
2022-10-05T03:41:13.956Z,0.00
2022-10-05T03:42:09.695Z,0.00
2022-10-05T03:43:04.921Z,0.00
2022-10-05T03:44:00.773Z,0.00
2022-10-05T03:44:55.889Z,0.00
2022-10-05T03:45:51.314Z,0.00
2022-10-05T03:46:46.696Z,0.00
2022-10-05T03:47:41.631Z,0.00
2022-10-05T03:48:38.438Z,0.00
2022-10-05T03:49:33.653Z,0.00
2022-10-05T03:50:29.479Z,0.00
2022-10-05T03:51:24.603Z,0.00
2022-10-05T03:52:20.065Z,0.00
2022-10-05T03:53:15.685Z,0.00
2022-10-05T03:54:10.859Z,0.00
2022-10-05T03:55:06.829Z,0.00
2022-10-05T03:56:03.338Z,0.00
2022-10-05T03:56:57.301Z,0.00
2022-10-05T03:57:52.943Z,0.00
2022-10-05T03:58:48.160Z,0.00
2022-10-05T03:59:43.383Z,0.00
2022-10-05T04:00:39.769Z,0.00
2022-10-05T04:01:35.042Z,0.00
2022-10-05T04:02:30.920Z,0.00
2022-10-05T04:03:25.952Z,0.00
2022-10-05T04:04:21.115Z,0.00
2022-10-05T04:05:16.274Z,0.00
2022-10-05T04:06:11.646Z,0.00
2022-10-05T04:07:06.694Z,0.00
2022-10-05T04:08:01.931Z,0.00
2022-10-05T04:08:57.747Z,0.00
2022-10-05T04:09:52.964Z,0.00
2022-10-05T04:10:48.253Z,0.00
2022-10-05T04:11:43.850Z,0.00
2022-10-05T04:12:39.012Z,0.00
2022-10-05T04:13:34.174Z,0.00
2022-10-05T04:14:29.471Z,0.00
2022-10-05T04:15:24.502Z,0.00
2022-10-05T04:16:19.640Z,0.00
2022-10-05T04:17:14.543Z,0.00
2022-10-05T04:18:09.570Z,0.00
2022-10-05T04:19:04.680Z,0.00
2022-10-05T04:19:59.683Z,0.00
2022-10-05T04:20:54.760Z,0.00
2022-10-05T04:21:49.978Z,0.00
2022-10-05T04:22:45.025Z,0.00
2022-10-05T04:23:40.152Z,0.00
2022-10-05T04:24:35.135Z,0.00
2022-10-05T04:25:30.201Z,0.00
2022-10-05T04:26:25.357Z,0.00
2022-10-05T04:27:20.386Z,0.00
2022-10-05T04:28:15.661Z,0.00
2022-10-05T04:29:11.349Z,0.00
2022-10-05T04:30:05.573Z,0.00
2022-10-05T04:31:00.646Z,0.00
2022-10-05T04:31:55.640Z,0.00
2022-10-05T04:32:50.709Z,0.00
2022-10-05T04:35:11.170Z,0.00
2022-10-05T04:36:04.457Z,0.00
2022-10-05T04:37:00.484Z,0.00
2022-10-05T04:37:55.171Z,0.00
2022-10-05T04:38:50.188Z,0.00
2022-10-05T04:39:45.490Z,0.00
2022-10-05T04:40:40.751Z,0.00
2022-10-05T04:41:35.922Z,0.00
2022-10-05T04:42:31.218Z,0.00
2022-10-05T04:43:26.249Z,0.00
2022-10-05T04:44:21.658Z,0.00
2022-10-05T04:45:16.857Z,0.00
2022-10-05T04:46:11.994Z,0.00
2022-10-05T04:47:07.141Z,0.00
2022-10-05T04:48:02.330Z,0.00
2022-10-05T04:48:57.469Z,1.00
2022-10-05T04:49:52.635Z,1.00
2022-10-05T04:50:47.807Z,0.00
2022-10-05T04:51:44.210Z,1.00
2022-10-05T04:52:38.342Z,1.00
2022-10-05T04:53:33.667Z,1.00
2022-10-05T04:54:28.875Z,1.00
2022-10-05T04:55:24.204Z,1.00
2022-10-05T04:56:19.306Z,2.00
2022-10-05T04:57:14.501Z,1.00
2022-10-05T04:58:09.721Z,2.00
2022-10-05T04:59:04.892Z,3.00
2022-10-05T05:00:00.038Z,3.00
2022-10-05T05:00:55.354Z,3.00
2022-10-05T05:01:50.522Z,4.00
2022-10-05T05:02:45.739Z,6.00
2022-10-05T05:03:40.999Z,6.00
2022-10-05T05:04:36.189Z,6.00
2022-10-05T05:05:31.554Z,8.00
2022-10-05T05:06:26.700Z,10.00
2022-10-05T05:07:21.931Z,12.00
2022-10-05T05:08:17.267Z,15.00
2022-10-05T05:09:12.539Z,17.00
2022-10-05T05:10:07.751Z,18.00
2022-10-05T05:11:02.994Z,26.00
2022-10-05T05:11:58.244Z,31.00
2022-10-05T05:12:53.500Z,37.00
2022-10-05T05:13:48.761Z,46.00
2022-10-05T05:14:44.001Z,50.00
2022-10-05T05:15:39.443Z,59.00
2022-10-05T05:16:34.646Z,61.00
2022-10-05T05:17:29.920Z,76.00
2022-10-05T05:18:25.204Z,79.00
2022-10-05T05:19:20.452Z,89.00
2022-10-05T05:20:15.761Z,105.00
2022-10-05T05:21:11.090Z,118.00
2022-10-05T05:22:06.393Z,143.00
2022-10-05T05:23:01.729Z,148.00
2022-10-05T05:23:57.059Z,164.00
2022-10-05T05:24:52.397Z,176.00
2022-10-05T05:25:48.011Z,197.00
2022-10-05T05:26:43.119Z,207.00
2022-10-05T05:27:38.456Z,243.00
2022-10-05T05:28:33.998Z,247.00
2022-10-05T05:29:29.302Z,274.00
2022-10-05T05:30:24.649Z,311.00
2022-10-05T05:31:20.088Z,317.00
2022-10-05T05:32:15.286Z,359.00
2022-10-05T05:33:10.660Z,381.00
2022-10-05T05:34:06.028Z,394.00
2022-10-05T05:35:01.370Z,436.00
2022-10-05T05:35:56.850Z,472.00
2022-10-05T05:36:52.082Z,509.00
2022-10-05T05:37:47.548Z,549.00
2022-10-05T05:38:42.787Z,606.00
2022-10-05T05:39:37.883Z,647.00
2022-10-05T05:40:33.004Z,659.00
2022-10-05T05:41:28.125Z,764.00
2022-10-05T05:42:23.238Z,779.00
2022-10-05T05:43:18.303Z,813.00
2022-10-05T05:44:13.396Z,773.00
2022-10-05T05:45:08.476Z,800.00
2022-10-05T05:46:03.631Z,794.00
2022-10-05T05:47:03.893Z,865.00
2022-10-05T05:47:54.583Z,878.00
2022-10-05T05:48:49.289Z,892.00
2022-10-05T05:49:44.721Z,934.00
2022-10-05T05:50:40.044Z,967.00
2022-10-05T05:51:35.455Z,1062.00
2022-10-05T05:52:30.839Z,1068.00
2022-10-05T05:53:26.409Z,1130.00
2022-10-05T05:54:21.834Z,1253.00
2022-10-05T05:55:17.115Z,1284.00
2022-10-05T05:56:12.529Z,1393.00
2022-10-05T05:57:07.937Z,1240.00
2022-10-05T05:58:03.371Z,1497.00
2022-10-05T05:58:58.846Z,1595.00
2022-10-05T05:59:54.441Z,1537.00
2022-10-05T06:00:49.704Z,1560.00
2022-10-05T06:01:45.374Z,1680.00
2022-10-05T06:02:40.557Z,1530.00
2022-10-05T06:03:35.467Z,1469.00
2022-10-05T06:04:30.506Z,1576.00
2022-10-05T06:05:25.543Z,1597.00
2022-10-05T06:06:20.588Z,1526.00
2022-10-05T06:07:15.584Z,1627.00
2022-10-05T06:08:10.583Z,1671.00
2022-10-05T06:09:05.572Z,1540.00
2022-10-05T06:10:00.720Z,1742.00
2022-10-05T06:10:55.670Z,1723.00
2022-10-05T06:11:52.189Z,1731.00
2022-10-05T06:12:47.362Z,1761.00
2022-10-05T06:13:42.496Z,2052.00
2022-10-05T06:14:37.609Z,2049.00
2022-10-05T06:15:32.632Z,2368.00
2022-10-05T06:16:27.750Z,2611.00
2022-10-05T06:17:22.829Z,2803.00
2022-10-05T06:18:17.900Z,3000.00
2022-10-05T06:19:13.294Z,2876.00
2022-10-05T06:20:08.721Z,2735.00
2022-10-05T06:21:04.237Z,2312.00
2022-10-05T06:21:59.650Z,2822.00
2022-10-05T06:22:55.087Z,2915.00
2022-10-05T06:23:50.528Z,3181.00
2022-10-05T06:24:46.018Z,2932.00
2022-10-05T06:25:41.501Z,2571.00
2022-10-05T06:26:37.083Z,2664.00
2022-10-05T06:27:32.382Z,2908.00
2022-10-05T06:28:27.894Z,2608.00
2022-10-05T06:29:23.254Z,2562.00
2022-10-05T06:30:18.673Z,2627.00
2022-10-05T06:31:14.104Z,2759.00
2022-10-05T06:32:09.546Z,2758.00
2022-10-05T06:33:04.877Z,3220.00
2022-10-05T06:34:00.271Z,2999.00
2022-10-05T06:34:59.730Z,2519.00
2022-10-05T06:35:55.011Z,2925.00
2022-10-05T06:36:50.469Z,2594.00
2022-10-05T06:37:45.734Z,2615.00
2022-10-05T06:38:41.254Z,2547.00
2022-10-05T06:39:36.683Z,2532.00
2022-10-05T06:40:31.980Z,2774.00
2022-10-05T06:41:27.489Z,2772.00
2022-10-05T06:42:22.873Z,2678.00
2022-10-05T06:43:18.226Z,2880.00
2022-10-05T06:44:13.587Z,2645.00
2022-10-05T06:45:08.237Z,3025.00
2022-10-05T06:46:03.514Z,3596.00
2022-10-05T06:46:58.510Z,3023.00
2022-10-05T06:47:53.533Z,3617.00
2022-10-05T06:48:48.682Z,4119.00
2022-10-05T06:49:43.684Z,4333.00
2022-10-05T06:50:38.705Z,5219.00
2022-10-05T06:51:33.666Z,4792.00
2022-10-05T06:52:28.827Z,5831.00
2022-10-05T06:53:23.844Z,6387.00
2022-10-05T06:54:18.912Z,6430.00
2022-10-05T06:55:14.426Z,4366.00
2022-10-05T06:56:08.986Z,5724.00
2022-10-05T06:57:04.470Z,5750.00
2022-10-05T06:58:03.956Z,4703.00
2022-10-05T06:58:59.416Z,4166.00
2022-10-05T06:59:54.852Z,4654.00
2022-10-05T07:00:50.290Z,4772.00
2022-10-05T07:01:46.022Z,4500.00
2022-10-05T07:02:41.384Z,5026.00
2022-10-05T07:03:36.492Z,4309.00
2022-10-05T07:04:36.599Z,4184.00
2022-10-05T07:05:28.700Z,6618.00
2022-10-05T07:06:23.143Z,7276.00
2022-10-05T07:07:18.608Z,4774.00
2022-10-05T07:08:14.085Z,8327.00
2022-10-05T07:09:09.570Z,6430.00
2022-10-05T07:10:05.088Z,6897.00
2022-10-05T07:11:00.454Z,7819.00
2022-10-05T07:11:59.596Z,6762.00
2022-10-05T07:12:51.552Z,7011.00
2022-10-05T07:13:45.550Z,7173.00
2022-10-05T07:14:40.604Z,7915.00
2022-10-05T07:15:35.792Z,8005.00
2022-10-05T07:16:30.875Z,8397.00
2022-10-05T07:17:25.852Z,8740.00
2022-10-05T07:18:20.908Z,8888.00
2022-10-05T07:19:15.931Z,8823.00
2022-10-05T07:20:11.006Z,8383.00
2022-10-05T07:21:06.070Z,9169.00
2022-10-05T07:22:01.116Z,9513.00
2022-10-05T07:22:56.122Z,9789.00
2022-10-05T07:23:51.182Z,9808.00
2022-10-05T07:24:46.232Z,9811.00
2022-10-05T07:25:41.351Z,10073.00
2022-10-05T07:26:36.460Z,10308.00
2022-10-05T07:27:31.569Z,10522.00
2022-10-05T07:28:26.841Z,10349.00
2022-10-05T07:29:21.933Z,10379.00
2022-10-05T07:30:16.982Z,10299.00
2022-10-05T07:31:12.490Z,10615.00
2022-10-05T07:32:07.788Z,10659.00
2022-10-05T07:33:03.330Z,10768.00
2022-10-05T07:33:58.808Z,10954.00
2022-10-05T07:34:54.285Z,11003.00
2022-10-05T07:35:49.796Z,11103.00
2022-10-05T07:36:45.983Z,10974.00
2022-10-05T07:37:40.763Z,10869.00
2022-10-05T07:38:36.280Z,11413.00
2022-10-05T07:39:55.384Z,11349.00
2022-10-05T07:40:28.354Z,11282.00
2022-10-05T07:41:22.837Z,11281.00
2022-10-05T07:42:18.513Z,11309.00
2022-10-05T07:43:13.902Z,11153.00
2022-10-05T07:44:13.174Z,10255.00
2022-10-05T07:45:08.207Z,11340.00
2022-10-05T07:46:03.820Z,11417.00
2022-10-05T07:46:59.276Z,11319.00
2022-10-05T07:47:54.595Z,11384.00
2022-10-05T07:48:49.863Z,11489.00
2022-10-05T07:49:45.283Z,11523.00
2022-10-05T07:50:40.687Z,11248.00
2022-10-05T07:51:36.364Z,11368.00
2022-10-05T07:52:34.619Z,11891.00
2022-10-05T07:53:27.065Z,11393.00
2022-10-05T07:54:22.574Z,11174.00
2022-10-05T07:55:18.079Z,11419.00
2022-10-05T07:56:13.759Z,11347.00
2022-10-05T07:57:09.224Z,11579.00
2022-10-05T07:58:04.190Z,11526.00
2022-10-05T07:58:59.225Z,11590.00
2022-10-05T07:59:54.319Z,11862.00
2022-10-05T08:00:49.342Z,11947.00
2022-10-05T08:01:44.371Z,12162.00
2022-10-05T08:02:39.430Z,11816.00
2022-10-05T08:03:34.405Z,11829.00
2022-10-05T08:04:29.640Z,11827.00
2022-10-05T08:05:24.646Z,12036.00
2022-10-05T08:06:19.746Z,12006.00
2022-10-05T08:07:16.655Z,12085.00
2022-10-05T08:08:14.258Z,12226.00
2022-10-05T08:09:06.909Z,12060.00
2022-10-05T08:10:01.894Z,12418.00
2022-10-05T08:10:57.717Z,12660.00
2022-10-05T08:11:53.196Z,12675.00
2022-10-05T08:12:49.012Z,12698.00
2022-10-05T08:13:44.233Z,12851.00
2022-10-05T08:14:39.711Z,12764.00
2022-10-05T08:15:35.377Z,12734.00
2022-10-05T08:16:30.762Z,12823.00
2022-10-05T08:17:26.495Z,12908.00
2022-10-05T08:18:21.796Z,13247.00
2022-10-05T08:19:17.171Z,13228.00
2022-10-05T08:20:12.700Z,12938.00
2022-10-05T08:21:07.740Z,13204.00
2022-10-05T08:22:02.711Z,13366.00
2022-10-05T08:22:57.681Z,12923.00
2022-10-05T08:23:52.760Z,13060.00
2022-10-05T08:24:47.875Z,12867.00
2022-10-05T08:25:42.867Z,13424.00
2022-10-05T08:26:37.871Z,15073.00
2022-10-05T08:27:33.173Z,20808.00
2022-10-05T08:28:28.118Z,28736.00
2022-10-05T08:29:23.299Z,29984.00
2022-10-05T08:30:20.325Z,32072.00
2022-10-05T08:31:15.333Z,37832.00
2022-10-05T08:32:10.423Z,39408.00
2022-10-05T08:33:05.459Z,41024.00
2022-10-05T08:34:01.680Z,38304.00
2022-10-05T08:34:57.074Z,39088.00
2022-10-05T08:35:52.512Z,39840.00
2022-10-05T08:36:52.928Z,37744.00
2022-10-05T08:37:44.938Z,37088.00
2022-10-05T08:38:39.629Z,35808.00
2022-10-05T08:39:34.959Z,34608.00
2022-10-05T08:40:30.400Z,34536.00
2022-10-05T08:41:25.932Z,40200.00
2022-10-05T08:42:21.375Z,41520.00
2022-10-05T08:43:16.819Z,41816.00
2022-10-05T08:44:11.840Z,45936.00
2022-10-05T08:45:06.840Z,45672.00
2022-10-05T08:46:01.988Z,44712.00
2022-10-05T08:46:57.046Z,47216.00
2022-10-05T08:47:52.082Z,51008.00
2022-10-05T08:48:47.095Z,49736.00
2022-10-05T08:49:42.142Z,50648.00
2022-10-05T08:50:37.201Z,50920.00
2022-10-05T08:51:32.249Z,49400.00
2022-10-05T08:52:27.306Z,47896.00
2022-10-05T08:53:24.053Z,45816.00
2022-10-05T08:54:19.526Z,45984.00
2022-10-05T08:55:15.117Z,43968.00
2022-10-05T08:56:10.308Z,41152.00
2022-10-05T08:57:05.870Z,44400.00
2022-10-05T08:58:01.322Z,52368.00
2022-10-05T08:58:56.876Z,51552.00
2022-10-05T08:59:52.425Z,50192.00
2022-10-05T09:00:47.771Z,51488.00
2022-10-05T09:01:43.291Z,50752.00
2022-10-05T09:02:38.718Z,50608.00
2022-10-05T09:03:34.649Z,50584.00
2022-10-05T09:04:29.797Z,51024.00
2022-10-05T09:05:25.466Z,51520.00
2022-10-05T09:06:20.950Z,48760.00
2022-10-05T09:07:15.992Z,52504.00
2022-10-05T09:08:10.968Z,51584.00
2022-10-05T09:09:06.054Z,48952.00
2022-10-05T09:10:02.077Z,49240.00
2022-10-05T09:10:56.416Z,53336.00
2022-10-05T09:11:51.272Z,47368.00
2022-10-05T09:12:46.277Z,52992.00
2022-10-05T09:13:41.430Z,51088.00
2022-10-05T09:14:36.486Z,52208.00
2022-10-05T09:15:31.647Z,54200.00
2022-10-05T09:16:27.677Z,56904.00
2022-10-05T09:17:23.124Z,57768.00
2022-10-05T09:18:18.705Z,55624.00
2022-10-05T09:19:14.211Z,53072.00
2022-10-05T09:20:09.731Z,55816.00
2022-10-05T09:21:05.255Z,57616.00
2022-10-05T09:22:00.553Z,57984.00
2022-10-05T09:22:56.008Z,57904.00
2022-10-05T09:23:51.436Z,57120.00
2022-10-05T09:24:48.631Z,53264.00
2022-10-05T09:25:42.322Z,54920.00
2022-10-05T09:26:37.870Z,54128.00
2022-10-05T09:27:33.303Z,55880.00
2022-10-05T09:28:29.067Z,56888.00
2022-10-05T09:29:24.276Z,57808.00
2022-10-05T09:30:19.353Z,58832.00
2022-10-05T09:31:14.435Z,56912.00
2022-10-05T09:32:13.030Z,55512.00
2022-10-05T09:33:05.363Z,52584.00
2022-10-05T09:33:59.473Z,56384.00
2022-10-05T09:34:54.712Z,58488.00
2022-10-05T09:35:49.714Z,60624.00
2022-10-05T09:36:44.725Z,57912.00
2022-10-05T09:37:43.778Z,58336.00
2022-10-05T09:38:38.779Z,60448.00
2022-10-05T09:39:33.835Z,56048.00
2022-10-05T09:40:28.902Z,57992.00
2022-10-05T09:41:23.909Z,57624.00
2022-10-05T09:42:18.990Z,55808.00
2022-10-05T09:43:13.947Z,56296.00
2022-10-05T09:44:09.202Z,53656.00
2022-10-05T09:45:04.100Z,54400.00
2022-10-05T09:45:59.611Z,54576.00
2022-10-05T09:46:55.774Z,56640.00
2022-10-05T09:47:51.345Z,57624.00
2022-10-05T09:48:47.175Z,54296.00
2022-10-05T09:49:42.832Z,53000.00
2022-10-05T09:50:38.340Z,53656.00
2022-10-05T09:51:33.990Z,55320.00
2022-10-05T09:52:29.543Z,59448.00
2022-10-05T09:53:25.376Z,61040.00
2022-10-05T09:54:20.789Z,63800.00
2022-10-05T09:55:16.284Z,63720.00
2022-10-05T09:56:12.028Z,62512.00
2022-10-05T09:57:07.673Z,61800.00
2022-10-05T09:58:03.089Z,62368.00
2022-10-05T09:58:59.499Z,61864.00
2022-10-05T09:59:55.148Z,61152.00
2022-10-05T10:00:58.804Z,60056.00
2022-10-05T10:01:47.721Z,60104.00
2022-10-05T10:02:41.802Z,59000.00
2022-10-05T10:03:36.823Z,59056.00
2022-10-05T10:04:32.018Z,57472.00
2022-10-05T10:05:30.683Z,57080.00
2022-10-05T10:06:26.532Z,55624.00
2022-10-05T10:07:21.700Z,55464.00
2022-10-05T10:08:17.337Z,58184.00
2022-10-05T10:09:13.045Z,58208.00
2022-10-05T10:10:08.479Z,55920.00
2022-10-05T10:11:05.247Z,59608.00
2022-10-05T10:12:00.668Z,61656.00
2022-10-05T10:12:56.393Z,59496.00
2022-10-05T10:13:51.970Z,56144.00
2022-10-05T10:14:47.397Z,55312.00
2022-10-05T10:15:43.404Z,53328.00
2022-10-05T10:16:38.816Z,51136.00
2022-10-05T10:17:34.487Z,50624.00
2022-10-05T10:18:30.096Z,51808.00
2022-10-05T10:19:25.351Z,50832.00
2022-10-05T10:20:21.214Z,52984.00
2022-10-05T10:21:16.752Z,42536.00
2022-10-05T10:22:12.205Z,30352.00
2022-10-05T10:23:08.504Z,19920.00
2022-10-05T10:24:04.051Z,17808.00
2022-10-05T10:24:59.908Z,17368.00
2022-10-05T10:25:55.354Z,15923.00
2022-10-05T10:26:50.873Z,15611.00
2022-10-05T10:27:50.342Z,15330.00
2022-10-05T10:28:42.984Z,15102.00
2022-10-05T10:29:37.701Z,14506.00
2022-10-05T10:30:36.367Z,13985.00
2022-10-05T10:31:28.902Z,13579.00
2022-10-05T10:32:24.732Z,13542.00
2022-10-05T10:33:20.159Z,13590.00
2022-10-05T10:34:15.640Z,13101.00
2022-10-05T10:35:11.193Z,13026.00
2022-10-05T10:36:07.245Z,12809.00
2022-10-05T10:37:02.515Z,12690.00
2022-10-05T10:37:57.919Z,12860.00
2022-10-05T10:38:53.690Z,12761.00
2022-10-05T10:39:49.391Z,12785.00
2022-10-05T10:40:44.774Z,12954.00
2022-10-05T10:41:41.463Z,12700.00
2022-10-05T10:42:36.839Z,13098.00
2022-10-05T10:43:32.615Z,13518.00
2022-10-05T10:44:28.242Z,13353.00
2022-10-05T10:45:23.786Z,13489.00
2022-10-05T10:46:19.765Z,13541.00
2022-10-05T10:47:15.519Z,13700.00
2022-10-05T10:48:10.919Z,13352.00
2022-10-05T10:49:06.406Z,13343.00
2022-10-05T10:50:01.919Z,13325.00
2022-10-05T10:50:57.901Z,13283.00
2022-10-05T10:51:53.424Z,13311.00
2022-10-05T10:52:49.009Z,13225.00
2022-10-05T10:53:44.410Z,13290.00
2022-10-05T10:54:39.947Z,13427.00
2022-10-05T10:55:35.368Z,13286.00
2022-10-05T10:56:32.107Z,13445.00
2022-10-05T10:57:27.408Z,13240.00
2022-10-05T10:58:23.038Z,13386.00
2022-10-05T10:59:18.431Z,13395.00
2022-10-05T11:00:13.658Z,13280.00
2022-10-05T11:01:08.810Z,13213.00
2022-10-05T11:02:03.943Z,13005.00
2022-10-05T11:02:58.948Z,12908.00
2022-10-05T11:03:54.026Z,13091.00
2022-10-05T11:04:49.263Z,12488.00
2022-10-05T11:05:47.947Z,12663.00
2022-10-05T11:06:39.233Z,12667.00
2022-10-05T11:07:34.175Z,12438.00
2022-10-05T11:08:29.373Z,12420.00
2022-10-05T11:09:24.468Z,12586.00
2022-10-05T11:10:19.603Z,12582.00
2022-10-05T11:11:18.502Z,13073.00
2022-10-05T11:12:13.593Z,13159.00
2022-10-05T11:13:08.732Z,13169.00
2022-10-05T11:14:03.778Z,12998.00
2022-10-05T11:14:58.862Z,13084.00
2022-10-05T11:15:53.961Z,13086.00
2022-10-05T11:16:49.110Z,13488.00
2022-10-05T11:17:43.938Z,13588.00
2022-10-05T11:18:39.155Z,13448.00
2022-10-05T11:19:40.594Z,13398.00
2022-10-05T11:20:32.052Z,13293.00
2022-10-05T11:21:26.449Z,13337.00
2022-10-05T11:22:22.482Z,13343.00
2022-10-05T11:23:17.874Z,13226.00
2022-10-05T11:24:13.259Z,13539.00
2022-10-05T11:25:09.025Z,13347.00
2022-10-05T11:26:04.726Z,13215.00
2022-10-05T11:27:00.669Z,13377.00
2022-10-05T11:27:55.926Z,13532.00
2022-10-05T11:28:51.805Z,13596.00
2022-10-05T11:29:47.424Z,13033.00
2022-10-05T11:30:45.205Z,13245.00
2022-10-05T11:31:38.341Z,13427.00
2022-10-05T11:32:33.819Z,13711.00
2022-10-05T11:33:29.586Z,14064.00